Time;durP1;ratioP1;P1;durP2;ratioP2;P2;SDS_P1;SDS_P2;PMS_P1;PMS_P2;Temp;Humidity;BMP_temperature;BMP_pressure;BME280_temperature;BME280_humidity;BME280_pressure;Samples;Min_cycle;Max_cycle;Signal;HPM_P1;HPM_P2
2022/10/02 00:00:34;;;;;;;1.00;0.85;;;;;;;;;;5097767;28;20028;-91
2022/10/02 00:03:20;;;;;;;6.75;3.47;;;;;;;;;;5114507;28;20034;-92
2022/10/02 00:05:50;;;;;;;0.55;0.40;;;;;;;;;;5107359;28;20024;-90
2022/10/02 00:08:19;;;;;;;;;;;;;;;;;;5115035;28;20034;-91
2022/10/02 00:10:49;;;;;;;1.70;1.52;;;;;;;;;;5109880;28;19927;-92
2022/10/02 00:13:19;;;;;;;1.00;0.75;;;;;;;;;;5111528;28;20034;-90
2022/10/02 00:15:46;;;;;;;1.60;1.05;;;;;;;;;;5113867;28;20524;-88
2022/10/02 00:18:21;;;;;;;4.30;1.40;;;;;;;;;;5113310;28;20015;-90
2022/10/02 00:21:05;;;;;;;0.38;0.38;;;;;;;;;;5113192;28;20429;-91
2022/10/02 00:23:42;;;;;;;2.13;1.45;;;;;;;;;;5113610;28;20383;-88
2022/10/02 00:26:16;;;;;;;1.77;1.33;;;;;;;;;;5113242;28;20031;-89
2022/10/02 00:29:05;;;;;;;1.17;0.77;;;;;;;;;;5113508;28;20081;-87
2022/10/02 00:32:12;;;;;;;1.23;0.85;;;;;;;;;;5083034;28;20043;-89
2022/10/02 00:34:58;;;;;;;0.73;0.63;;;;;;;;;;5109849;28;20025;-87
2022/10/02 00:37:50;;;;;;;1.45;0.85;;;;;;;;;;5111130;28;20131;-90
2022/10/02 00:40:52;;;;;;;1.60;0.98;;;;;;;;;;5084173;28;20054;-87
2022/10/02 00:43:36;;;;;;;0.35;0.30;;;;;;;;;;5108800;28;20032;-85
2022/10/02 00:46:26;;;;;;;1.27;0.82;;;;;;;;;;5112067;28;20108;-86
2022/10/02 00:48:55;;;;;;;0.63;0.52;;;;;;;;;;5110211;28;20043;-90
2022/10/02 00:51:39;;;;;;;1.35;0.68;;;;;;;;;;5111648;28;20356;-91
2022/10/02 00:54:07;;;;;;;0.50;0.50;;;;;;;;;;5111694;28;20496;-87
2022/10/02 00:56:32;;;;;;;0.30;0.30;;;;;;;;;;5112051;28;20032;-88
2022/10/02 00:59:24;;;;;;;0.40;0.40;;;;;;;;;;5113679;28;20031;-91
2022/10/02 01:02:10;;;;;;;0.57;0.32;;;;;;;;;;5112174;28;20016;-89
2022/10/02 01:04:37;;;;;;;0.30;0.30;;;;;;;;;;5107048;28;20179;-90
2022/10/02 01:07:06;;;;;;;0.57;0.50;;;;;;;;;;5112052;28;20035;-91
2022/10/02 01:09:32;;;;;;;0.50;0.50;;;;;;;;;;5110413;28;20072;-92
2022/10/02 01:11:59;;;;;;;0.57;0.40;;;;;;;;;;5113171;28;20028;-89
2022/10/02 01:14:35;;;;;;;0.20;0.20;;;;;;;;;;5112710;28;20023;-89
2022/10/02 01:17:01;;;;;;;0.17;0.10;;;;;;;;;;5114946;28;20087;-89
2022/10/02 01:19:37;;;;;;;0.68;0.65;;;;;;;;;;5110803;28;20032;-90
2022/10/02 01:22:21;;;;;;;2.55;0.65;;;;;;;;;;5116227;28;20416;-92
2022/10/02 01:24:47;;;;;;;1.42;0.52;;;;;;;;;;5117197;28;20055;-91
2022/10/02 01:27:12;;;;;;;0.22;0.22;;;;;;;;;;5118150;28;20026;-91
2022/10/02 01:29:38;;;;;;;0.20;0.20;;;;;;;;;;5115721;28;20084;-88
2022/10/02 01:32:03;;;;;;;0.77;0.50;;;;;;;;;;5116128;28;20110;-87
2022/10/02 01:34:30;;;;;;;4.80;0.65;;;;;;;;;;5116756;28;20031;-91
2022/10/02 01:36:56;;;;;;;0.75;0.55;;;;;;;;;;5115798;28;20065;-90
2022/10/02 01:39:21;;;;;;;0.10;0.10;;;;;;;;;;5116014;28;20023;-91
2022/10/02 01:41:47;;;;;;;0.28;0.28;;;;;;;;;;5115829;28;20042;-92
2022/10/02 01:44:14;;;;;;;0.43;0.25;;;;;;;;;;5115709;28;20045;-87
2022/10/02 01:47:06;;;;;;;1.05;0.57;;;;;;;;;;5116086;28;20051;-89
2022/10/02 01:50:02;;;;;;;0.30;0.30;;;;;;;;;;5114797;28;20499;-89
2022/10/02 01:52:56;;;;;;;0.63;0.52;;;;;;;;;;5115408;28;20047;-93
2022/10/02 01:56:02;;;;;;;0.22;0.22;;;;;;;;;;5114289;28;20364;-91
2022/10/02 01:59:03;;;;;;;0.22;0.20;;;;;;;;;;5053487;28;20029;-91
2022/10/02 02:01:54;;;;;;;0.13;0.13;;;;;;;;;;5054222;28;20029;-89
2022/10/02 02:04:23;;;;;;;0.32;0.32;;;;;;;;;;5104672;28;20074;-90
2022/10/02 02:07:02;;;;;;;0.60;0.40;;;;;;;;;;5113672;28;20026;-90
2022/10/02 02:09:38;;;;;;;0.32;0.20;;;;;;;;;;5114830;28;20031;-90
2022/10/02 02:12:17;;;;;;;0.52;0.38;;;;;;;;;;5113393;28;20043;-89
2022/10/02 02:14:51;;;;;;;0.73;0.57;;;;;;;;;;5115760;27;20065;-90
2022/10/02 02:17:27;;;;;;;0.63;0.30;;;;;;;;;;5114185;28;20491;-89
2022/10/02 02:20:00;;;;;;;0.30;0.30;;;;;;;;;;5116428;28;20023;-87
2022/10/02 02:22:35;;;;;;;0.40;0.30;;;;;;;;;;5113476;27;20024;-89
2022/10/02 02:25:08;;;;;;;0.35;0.30;;;;;;;;;;5115647;28;20027;-89
2022/10/02 02:27:39;;;;;;;0.77;0.47;;;;;;;;;;5114963;28;20425;-88
2022/10/02 02:30:10;;;;;;;0.73;0.43;;;;;;;;;;5112275;28;20524;-87
2022/10/02 02:32:42;;;;;;;0.40;0.40;;;;;;;;;;5115338;28;20020;-89
2022/10/02 02:35:17;;;;;;;0.60;0.40;;;;;;;;;;5114617;28;20030;-89
2022/10/02 02:37:45;;;;;;;1.15;0.70;;;;;;;;;;5115382;28;20051;-90
2022/10/02 02:40:16;;;;;;;1.00;0.95;;;;;;;;;;5115091;28;20023;-90
2022/10/02 02:42:48;;;;;;;0.80;0.65;;;;;;;;;;5114264;28;20047;-88
2022/10/02 02:45:28;;;;;;;0.63;0.43;;;;;;;;;;5113282;28;20423;-89
2022/10/02 02:47:57;;;;;;;0.52;0.50;;;;;;;;;;5116849;27;20047;-91
2022/10/02 02:50:30;;;;;;;;;;;;;;;;;;5115801;28;20023;-88
2022/10/02 02:53:04;;;;;;;0.77;0.52;;;;;;;;;;5113876;28;19967;-89
2022/10/02 02:55:33;;;;;;;0.95;0.63;;;;;;;;;;5111800;28;20055;-88
2022/10/02 02:58:22;;;;;;;0.60;0.53;;;;;;;;;;5114593;28;20027;-90
2022/10/02 03:00:48;;;;;;;0.98;0.77;;;;;;;;;;5114972;28;20066;-90
2022/10/02 03:03:13;;;;;;;0.73;0.60;;;;;;;;;;5115184;28;20023;-90
2022/10/02 03:05:46;;;;;;;0.50;0.50;;;;;;;;;;5113490;28;20060;-88
2022/10/02 03:08:24;;;;;;;0.63;0.60;;;;;;;;;;5115204;28;20023;-89
2022/10/02 03:11:11;;;;;;;0.75;0.45;;;;;;;;;;5113867;28;20544;-89
2022/10/02 03:13:39;;;;;;;1.13;1.02;;;;;;;;;;5113175;28;20041;-88
2022/10/02 03:16:23;;;;;;;1.30;1.00;;;;;;;;;;5113345;28;20032;-88
2022/10/02 03:19:26;;;;;;;1.02;0.90;;;;;;;;;;5111894;28;20023;-91
2022/10/02 03:22:07;;;;;;;0.80;0.75;;;;;;;;;;5110677;28;20371;-90
2022/10/02 03:24:51;;;;;;;0.60;0.60;;;;;;;;;;5111954;28;20110;-89
2022/10/02 03:27:16;;;;;;;1.05;0.85;;;;;;;;;;5113359;28;20019;-89
2022/10/02 03:29:49;;;;;;;2.17;0.80;;;;;;;;;;5113066;28;20118;-91
2022/10/02 03:32:17;;;;;;;1.35;1.00;;;;;;;;;;5114340;28;20094;-90
2022/10/02 03:34:42;;;;;;;2.05;1.63;;;;;;;;;;5108843;28;20027;-90
2022/10/02 03:37:08;;;;;;;0.80;0.70;;;;;;;;;;5113387;28;20023;-88
2022/10/02 03:39:33;;;;;;;0.80;0.75;;;;;;;;;;5111807;28;20039;-91
2022/10/02 03:42:00;;;;;;;0.52;0.52;;;;;;;;;;5112271;28;20024;-89
2022/10/02 03:44:25;;;;;;;0.52;0.52;;;;;;;;;;5112389;28;20028;-89
2022/10/02 03:46:51;;;;;;;5.55;0.70;;;;;;;;;;5109449;28;20027;-91
2022/10/02 03:49:22;;;;;;;1.08;0.95;;;;;;;;;;5112849;28;20160;-89
2022/10/02 03:51:48;;;;;;;1.90;1.02;;;;;;;;;;5111228;28;20437;-89
2022/10/02 03:54:18;;;;;;;0.65;0.65;;;;;;;;;;5111451;28;20107;-89
2022/10/02 03:56:47;;;;;;;0.70;0.70;;;;;;;;;;5113771;28;20406;-93
2022/10/02 03:59:39;;;;;;;1.45;1.15;;;;;;;;;;5112472;28;20023;-88
2022/10/02 04:02:25;;;;;;;1.13;0.85;;;;;;;;;;5112769;28;20110;-89
2022/10/02 04:04:59;;;;;;;1.20;0.73;;;;;;;;;;5112874;28;20046;-89
2022/10/02 04:07:32;;;;;;;0.90;0.75;;;;;;;;;;5112716;28;20061;-89
2022/10/02 04:10:13;;;;;;;0.95;0.85;;;;;;;;;;5110627;28;20427;-91
2022/10/02 04:12:43;;;;;;;1.85;1.55;;;;;;;;;;5112086;28;20110;-88
2022/10/02 04:15:34;;;;;;;0.43;0.43;;;;;;;;;;5113160;28;20028;-87
2022/10/02 04:18:10;;;;;;;1.20;1.00;;;;;;;;;;5108911;28;20066;-86
2022/10/02 04:20:44;;;;;;;0.75;0.68;;;;;;;;;;5110696;28;20117;-86
2022/10/02 04:23:31;;;;;;;0.73;0.70;;;;;;;;;;5112303;28;20106;-88
2022/10/02 04:26:02;;;;;;;1.02;0.93;;;;;;;;;;5110351;28;20380;-88
2022/10/02 04:28:37;;;;;;;1.08;0.73;;;;;;;;;;5112065;28;20532;-89
2022/10/02 04:31:09;;;;;;;0.70;0.68;;;;;;;;;;5111599;28;20031;-86
2022/10/02 04:33:34;;;;;;;0.65;0.43;;;;;;;;;;5109125;28;20030;-85
2022/10/02 04:36:03;;;;;;;0.65;0.65;;;;;;;;;;5112581;28;20036;-85
2022/10/02 04:38:37;;;;;;;1.40;0.82;;;;;;;;;;5111145;28;20027;-89
2022/10/02 04:41:28;;;;;;;0.25;0.25;;;;;;;;;;5112808;28;20531;-87
2022/10/02 04:44:03;;;;;;;1.15;1.05;;;;;;;;;;5109801;28;20051;-85
2022/10/02 04:46:50;;;;;;;1.35;0.70;;;;;;;;;;5110191;28;20024;-89
2022/10/02 04:49:43;;;;;;;1.23;1.00;;;;;;;;;;5110979;28;20020;-89
2022/10/02 04:52:23;;;;;;;1.25;0.85;;;;;;;;;;5111451;28;20039;-87
2022/10/02 04:55:15;;;;;;;0.70;0.70;;;;;;;;;;5111928;28;20531;-87
2022/10/02 04:58:04;;;;;;;0.40;0.40;;;;;;;;;;5112521;28;20023;-89
2022/10/02 05:00:47;;;;;;;0.82;0.70;;;;;;;;;;5106532;28;20111;-89
2022/10/02 05:03:22;;;;;;;0.68;0.68;;;;;;;;;;5110886;28;20027;-88
2022/10/02 05:06:14;;;;;;;0.73;0.73;;;;;;;;;;5112016;28;20016;-87
2022/10/02 05:08:48;;;;;;;0.60;0.43;;;;;;;;;;5111771;28;20078;-90
2022/10/02 05:11:37;;;;;;;1.42;0.60;;;;;;;;;;5111177;28;20052;-88
2022/10/02 05:14:23;;;;;;;0.60;0.60;;;;;;;;;;5111302;28;20023;-86
2022/10/02 05:17:05;;;;;;;0.50;0.50;;;;;;;;;;5110294;28;20260;-91
2022/10/02 05:19:58;;;;;;;1.27;0.95;;;;;;;;;;5111510;28;20382;-88
2022/10/02 05:22:48;;;;;;;1.02;0.90;;;;;;;;;;5110439;28;20028;-88
2022/10/02 05:25:48;;;;;;;0.93;0.77;;;;;;;;;;5112942;28;20035;-87
2022/10/02 05:28:20;;;;;;;1.20;1.10;;;;;;;;;;5113244;28;20081;-90
2022/10/02 05:30:58;;;;;;;0.40;0.40;;;;;;;;;;5111756;28;20046;-91
2022/10/02 05:33:38;;;;;;;0.85;0.57;;;;;;;;;;5106680;28;20172;-91
2022/10/02 05:36:37;;;;;;;0.75;0.50;;;;;;;;;;5110030;28;20036;-86
2022/10/02 05:39:17;;;;;;;0.60;0.60;;;;;;;;;;5112519;28;20043;-88
2022/10/02 05:42:05;;;;;;;1.10;0.63;;;;;;;;;;5111189;28;20489;-88
2022/10/02 05:44:36;;;;;;;1.02;0.88;;;;;;;;;;5112574;28;20019;-87
2022/10/02 05:47:02;;;;;;;0.82;0.70;;;;;;;;;;5112843;28;20050;-84
2022/10/02 05:49:41;;;;;;;0.52;0.52;;;;;;;;;;5112396;28;20047;-88
2022/10/02 05:52:22;;;;;;;0.75;0.68;;;;;;;;;;5112069;28;20031;-87
2022/10/02 05:55:02;;;;;;;0.47;0.47;;;;;;;;;;5111419;28;20039;-86
2022/10/02 05:57:41;;;;;;;0.70;0.70;;;;;;;;;;5112418;28;20076;-91
2022/10/02 06:00:22;;;;;;;0.90;0.55;;;;;;;;;;5109655;28;20043;-86
2022/10/02 06:02:56;;;;;;;0.40;0.38;;;;;;;;;;5112289;28;20421;-88
2022/10/02 06:05:40;;;;;;;0.80;0.68;;;;;;;;;;5112139;28;20047;-89
2022/10/02 06:08:12;;;;;;;0.63;0.50;;;;;;;;;;5119019;27;20550;-89
2022/10/02 06:10:47;;;;;;;1.83;0.68;;;;;;;;;;5116845;27;20024;-88
2022/10/02 06:14:04;;;;;;;0.93;0.70;;;;;;;;;;5116056;28;20023;-89
2022/10/02 06:16:40;;;;;;;0.57;0.47;;;;;;;;;;5110049;28;20482;-89
2022/10/02 06:19:22;;;;;;;0.60;0.60;;;;;;;;;;5115335;28;20042;-89
2022/10/02 06:22:11;;;;;;;0.80;0.80;;;;;;;;;;5117056;28;20016;-89
2022/10/02 06:25:03;;;;;;;0.50;0.50;;;;;;;;;;5119339;27;20410;-92
2022/10/02 06:27:28;;;;;;;0.93;0.82;;;;;;;;;;5116052;28;20045;-90
2022/10/02 06:30:05;;;;;;;0.70;0.47;;;;;;;;;;5113689;28;20118;-88
2022/10/02 06:32:56;;;;;;;0.68;0.57;;;;;;;;;;5114460;28;20108;-89
2022/10/02 06:35:33;;;;;;;1.13;0.80;;;;;;;;;;5115414;28;20028;-90
2022/10/02 06:38:36;;;;;;;1.13;0.80;;;;;;;;;;5115113;27;20015;-87
2022/10/02 06:41:36;;;;;;;0.50;0.50;;;;;;;;;;5115222;28;20027;-90
2022/10/02 06:44:16;;;;;;;1.00;0.75;;;;;;;;;;5116754;28;20143;-89
2022/10/02 06:47:21;;;;;;;0.75;0.68;;;;;;;;;;5114707;28;20547;-89
2022/10/02 06:50:14;;;;;;;2.05;0.60;;;;;;;;;;5113800;28;20076;-87
2022/10/02 06:52:49;;;;;;;0.38;0.32;;;;;;;;;;5111685;28;20064;-88
2022/10/02 06:55:39;;;;;;;1.92;0.82;;;;;;;;;;5114546;28;20036;-91
2022/10/02 06:58:14;;;;;;;;;;;;;;;;;;5114077;28;20039;-90
2022/10/02 07:01:14;;;;;;;0.50;0.40;;;;;;;;;;5110202;28;19961;-92
2022/10/02 07:04:04;;;;;;;0.55;0.55;;;;;;;;;;5114163;27;20042;-88
2022/10/02 07:06:32;;;;;;;;;;;;;;;;;;5115732;28;20062;-89
2022/10/02 07:09:26;;;;;;;0.35;0.35;;;;;;;;;;5113070;28;19926;-88
2022/10/02 07:12:19;;;;;;;0.32;0.32;;;;;;;;;;5114894;28;20106;-90
2022/10/02 07:15:20;;;;;;;0.43;0.17;;;;;;;;;;5113928;28;20024;-88
2022/10/02 07:17:49;;;;;;;0.38;0.38;;;;;;;;;;5114194;28;20554;-88
2022/10/02 07:20:37;;;;;;;0.50;0.50;;;;;;;;;;5112551;28;20482;-88
2022/10/02 07:23:34;;;;;;;0.88;0.57;;;;;;;;;;5117251;28;20035;-90
2022/10/02 07:26:36;;;;;;;0.40;0.40;;;;;;;;;;5114208;28;20164;-86
2022/10/02 07:29:19;;;;;;;0.28;0.28;;;;;;;;;;5111289;28;20152;-85
2022/10/02 07:31:47;;;;;;;0.40;0.40;;;;;;;;;;5108873;28;20047;-86
2022/10/02 07:34:50;;;;;;;0.45;0.45;;;;;;;;;;5108397;28;20042;-84
2022/10/02 07:37:34;;;;;;;0.75;0.50;;;;;;;;;;5112238;28;20019;-87
2022/10/02 07:40:11;;;;;;;0.90;0.45;;;;;;;;;;5111177;28;20023;-86
2022/10/02 07:42:45;;;;;;;0.38;0.30;;;;;;;;;;5112007;28;20375;-85
2022/10/02 07:45:27;;;;;;;0.43;0.43;;;;;;;;;;5109433;28;20037;-89
2022/10/02 07:48:17;;;;;;;0.77;0.68;;;;;;;;;;5110644;28;20051;-89
2022/10/02 07:50:59;;;;;;;0.32;0.32;;;;;;;;;;5111896;28;20147;-92
2022/10/02 07:53:30;;;;;;;0.20;0.20;;;;;;;;;;5113060;28;20019;-90
2022/10/02 07:55:56;;;;;;;0.13;0.13;;;;;;;;;;5111277;28;20039;-85
2022/10/02 07:58:30;;;;;;;1.08;0.68;;;;;;;;;;5111903;28;20047;-84
2022/10/02 08:01:01;;;;;;;0.40;0.30;;;;;;;;;;5112804;28;20451;-84
2022/10/02 08:03:48;;;;;;;0.35;0.35;;;;;;;;;;5108577;28;20111;-86
2022/10/02 08:06:15;;;;;;;0.15;0.15;;;;;;;;;;5107060;28;20015;-83
2022/10/02 08:08:57;;;;;;;0.30;0.30;;;;;;;;;;5109550;28;20027;-88
2022/10/02 08:11:45;;;;;;;0.28;0.28;;;;;;;;;;5108878;28;20028;-86
2022/10/02 08:14:28;;;;;;;0.52;0.52;;;;;;;;;;5087683;28;20035;-86
2022/10/02 08:16:57;;;;;;;0.22;0.20;;;;;;;;;;5108197;28;20436;-85
2022/10/02 08:19:38;;;;;;;0.30;0.30;;;;;;;;;;5109475;27;20024;-85
2022/10/02 08:22:30;;;;;;;0.55;0.40;;;;;;;;;;5111505;28;20028;-85
2022/10/02 08:25:01;;;;;;;1.02;0.73;;;;;;;;;;5108700;28;20073;-86
2022/10/02 08:27:58;;;;;;;0.63;0.57;;;;;;;;;;5104137;28;20030;-83
2022/10/02 08:30:24;;;;;;;1.05;0.40;;;;;;;;;;5110344;28;20106;-85
2022/10/02 08:32:49;;;;;;;0.63;0.50;;;;;;;;;;5109964;28;20059;-86
2022/10/02 08:35:17;;;;;;;0.30;0.30;;;;;;;;;;5109547;27;20035;-85
2022/10/02 08:38:12;;;;;;;1.08;0.60;;;;;;;;;;5111698;28;20103;-84
2022/10/02 08:40:56;;;;;;;0.20;0.20;;;;;;;;;;5107320;28;20024;-86
2022/10/02 08:43:43;;;;;;;0.80;0.60;;;;;;;;;;5110961;28;20015;-86
2022/10/02 08:46:18;;;;;;;0.57;0.52;;;;;;;;;;5109773;28;20075;-85
2022/10/02 08:49:20;;;;;;;0.40;0.40;;;;;;;;;;5108185;28;20031;-83
2022/10/02 08:52:08;;;;;;;0.43;0.43;;;;;;;;;;5110378;28;20039;-85
2022/10/02 08:55:01;;;;;;;0.20;0.20;;;;;;;;;;5110283;28;20042;-84
2022/10/02 08:57:26;;;;;;;0.52;0.40;;;;;;;;;;5104149;28;20124;-85
2022/10/02 09:00:13;;;;;;;5.07;2.72;;;;;;;;;;5112363;28;20493;-85
2022/10/02 09:03:03;;;;;;;2.92;1.08;;;;;;;;;;5107996;28;20035;-84
2022/10/02 09:05:54;;;;;;;0.28;0.28;;;;;;;;;;5110735;28;20076;-84
2022/10/02 09:08:41;;;;;;;0.47;0.17;;;;;;;;;;5110345;28;20102;-88
2022/10/02 09:11:44;;;;;;;0.38;0.38;;;;;;;;;;5109346;28;20053;-87
2022/10/02 09:14:36;;;;;;;0.40;0.40;;;;;;;;;;5110589;28;20023;-87
2022/10/02 09:17:20;;;;;;;0.38;0.35;;;;;;;;;;5111518;28;20023;-87
2022/10/02 09:20:16;;;;;;;0.55;0.50;;;;;;;;;;5111580;28;20027;-86
2022/10/02 09:23:09;;;;;;;0.43;0.43;;;;;;;;;;5109773;28;20027;-86
2022/10/02 09:25:44;;;;;;;0.25;0.25;;;;;;;;;;5111306;28;20051;-83
2022/10/02 09:28:20;;;;;;;0.40;0.40;;;;;;;;;;5140474;27;20370;-84
2022/10/02 09:31:09;;;;;;;0.30;0.30;;;;;;;;;;5107878;28;20034;-83
2022/10/02 09:34:01;;;;;;;0.50;0.40;;;;;;;;;;5106754;28;20036;-84
2022/10/02 09:36:52;;;;;;;0.60;0.55;;;;;;;;;;5109192;28;20444;-85
2022/10/02 09:39:39;;;;;;;2.85;0.63;;;;;;;;;;5109108;28;20040;-83
2022/10/02 09:42:26;;;;;;;0.47;0.47;;;;;;;;;;5114311;28;20027;-85
2022/10/02 09:45:04;;;;;;;0.20;0.20;;;;;;;;;;5112394;28;20051;-84
2022/10/02 09:48:09;;;;;;;0.65;0.65;;;;;;;;;;5112589;28;20031;-84
2022/10/02 09:50:59;;;;;;;0.60;0.60;;;;;;;;;;5110672;28;20126;-83
2022/10/02 09:53:43;;;;;;;0.60;0.47;;;;;;;;;;5115528;27;20523;-84
2022/10/02 09:56:30;;;;;;;0.95;0.50;;;;;;;;;;5113304;28;20429;-83
2022/10/02 09:59:24;;;;;;;0.80;0.50;;;;;;;;;;5114257;28;20028;-84
2022/10/02 10:02:15;;;;;;;0.47;0.40;;;;;;;;;;5110030;27;20031;-83
2022/10/02 10:05:17;;;;;;;0.40;0.40;;;;;;;;;;5110672;28;20027;-83
2022/10/02 10:08:13;;;;;;;0.90;0.50;;;;;;;;;;5113518;28;20016;-84
2022/10/02 10:11:00;;;;;;;0.47;0.47;;;;;;;;;;5113139;28;20024;-86
2022/10/02 10:13:31;;;;;;;0.70;0.70;;;;;;;;;;5113546;28;20046;-84
2022/10/02 10:16:00;;;;;;;0.45;0.45;;;;;;;;;;5112523;28;20038;-84
2022/10/02 10:18:55;;;;;;;0.98;0.60;;;;;;;;;;5112569;28;20043;-84
2022/10/02 10:21:38;;;;;;;1.73;1.23;;;;;;;;;;5111530;28;20020;-85
2022/10/02 10:24:23;;;;;;;0.77;0.60;;;;;;;;;;5111569;28;20482;-84
2022/10/02 10:27:14;;;;;;;0.68;0.28;;;;;;;;;;5111266;28;20030;-84
2022/10/02 10:30:15;;;;;;;0.25;0.25;;;;;;;;;;5110811;28;20055;-85
2022/10/02 10:33:01;;;;;;;0.20;0.20;;;;;;;;;;5111450;28;20030;-84
2022/10/02 10:39:25;;;;;;;0.30;0.30;;;;;;;;;;5050674;28;20032;-85
2022/10/02 10:42:06;;;;;;;0.65;0.50;;;;;;;;;;5050370;28;20051;-85
2022/10/02 10:45:00;;;;;;;0.20;0.20;;;;;;;;;;5109656;28;20122;-84
2022/10/02 10:47:48;;;;;;;4.00;0.95;;;;;;;;;;5111247;28;20024;-84
2022/10/02 10:50:51;;;;;;;0.65;0.52;;;;;;;;;;5111770;28;20031;-85
2022/10/02 10:53:40;;;;;;;0.47;0.43;;;;;;;;;;5112526;28;20082;-84
2022/10/02 10:56:18;;;;;;;0.47;0.45;;;;;;;;;;5112476;28;20103;-85
2022/10/02 10:59:17;;;;;;;0.40;0.40;;;;;;;;;;5112431;28;20395;-85
2022/10/02 11:02:23;;;;;;;0.65;0.40;;;;;;;;;;5112645;28;20023;-85
2022/10/02 11:05:16;;;;;;;0.25;0.25;;;;;;;;;;5114635;28;20383;-85
2022/10/02 11:07:57;;;;;;;1.35;0.65;;;;;;;;;;5110369;28;20061;-87
2022/10/02 11:10:29;;;;;;;0.10;0.10;;;;;;;;;;5113430;28;20080;-88
2022/10/02 11:13:12;;;;;;;0.88;0.25;;;;;;;;;;5112480;28;20061;-89
2022/10/02 11:15:52;;;;;;;0.40;0.38;;;;;;;;;;5111408;28;20055;-88
2022/10/02 11:18:47;;;;;;;0.30;0.30;;;;;;;;;;5112574;27;20036;-87
2022/10/02 11:21:28;;;;;;;0.73;0.68;;;;;;;;;;5113610;28;20074;-86
2022/10/02 11:24:12;;;;;;;0.40;0.40;;;;;;;;;;5110032;28;20084;-87
2022/10/02 11:26:38;;;;;;;0.47;0.43;;;;;;;;;;5112629;28;20019;-87
2022/10/02 11:29:22;;;;;;;0.52;0.50;;;;;;;;;;5113245;28;20051;-88
2022/10/02 11:32:42;;;;;;;0.65;0.65;;;;;;;;;;5110406;28;20046;-87
2022/10/02 11:35:11;;;;;;;0.40;0.40;;;;;;;;;;5081811;28;20075;-87
2022/10/02 11:37:48;;;;;;;0.40;0.30;;;;;;;;;;5111895;28;20083;-87
2022/10/02 11:40:32;;;;;;;0.43;0.43;;;;;;;;;;5112769;28;20035;-86
2022/10/02 11:43:27;;;;;;;0.73;0.60;;;;;;;;;;5111195;27;20114;-86
2022/10/02 11:46:05;;;;;;;0.68;0.50;;;;;;;;;;5112887;28;20024;-86
2022/10/02 11:48:40;;;;;;;0.20;0.20;;;;;;;;;;5110646;28;20027;-86
2022/10/02 11:51:23;;;;;;;0.60;0.60;;;;;;;;;;5113987;28;20126;-86
2022/10/02 11:53:56;;;;;;;0.30;0.30;;;;;;;;;;5112641;28;20039;-89
2022/10/02 11:56:22;;;;;;;0.28;0.22;;;;;;;;;;5112244;28;20046;-87
2022/10/02 11:59:06;;;;;;;0.40;0.40;;;;;;;;;;5113560;28;20019;-88
2022/10/02 12:01:44;;;;;;;0.40;0.30;;;;;;;;;;5111197;28;20027;-88
2022/10/02 12:04:17;;;;;;;0.30;0.30;;;;;;;;;;5112659;28;20020;-88
2022/10/02 12:07:11;;;;;;;0.43;0.40;;;;;;;;;;5111619;28;20019;-88
2022/10/02 12:09:55;;;;;;;1.25;0.73;;;;;;;;;;5111858;28;20042;-89
2022/10/02 12:12:50;;;;;;;0.35;0.30;;;;;;;;;;5111142;28;20019;-88
2022/10/02 12:15:38;;;;;;;0.40;0.35;;;;;;;;;;5113787;28;20521;-85
2022/10/02 12:18:35;;;;;;;0.20;0.20;;;;;;;;;;5110823;27;20047;-86
2022/10/02 12:27:08;;;;;;;0.30;0.30;;;;;;;;;;5112703;28;20035;-87
2022/10/02 12:29:39;;;;;;;0.52;0.52;;;;;;;;;;5107895;28;20502;-87
2022/10/02 12:32:37;;;;;;;0.30;0.22;;;;;;;;;;5113339;28;20049;-87
2022/10/02 12:35:26;;;;;;;0.40;0.40;;;;;;;;;;5110718;28;20115;-89
2022/10/02 12:38:16;;;;;;;0.63;0.45;;;;;;;;;;5104071;28;20024;-91
2022/10/02 12:40:51;;;;;;;;;;;;;;;;;;5112314;28;20095;-89
2022/10/02 12:43:16;;;;;;;1.63;1.30;;;;;;;;;;5111662;28;19916;-88
2022/10/02 12:45:48;;;;;;;0.68;0.68;;;;;;;;;;5108011;28;20055;-87
2022/10/02 12:48:43;;;;;;;1.02;0.45;;;;;;;;;;5111320;28;20441;-89
2022/10/02 12:51:27;;;;;;;0.50;0.50;;;;;;;;;;5108927;27;20044;-88
2022/10/02 12:54:32;;;;;;;0.50;0.50;;;;;;;;;;5109224;28;20024;-88
2022/10/02 13:00:13;;;;;;;0.30;0.30;;;;;;;;;;5068130;28;20130;-87
2022/10/02 13:03:17;;;;;;;0.40;0.40;;;;;;;;;;5096326;28;20036;-87
2022/10/02 13:05:49;;;;;;;1.30;0.57;;;;;;;;;;5108631;28;20023;-87
2022/10/02 13:08:53;;;;;;;0.50;0.40;;;;;;;;;;5111759;28;20047;-87
2022/10/02 13:11:45;;;;;;;0.60;0.55;;;;;;;;;;5111988;28;20027;-87
2022/10/02 13:14:34;;;;;;;0.45;0.40;;;;;;;;;;5111355;28;20027;-87
2022/10/02 13:17:25;;;;;;;0.38;0.38;;;;;;;;;;5111017;28;20027;-86
2022/10/02 13:20:29;;;;;;;0.32;0.32;;;;;;;;;;5120095;27;20368;-87
2022/10/02 13:23:19;;;;;;;0.55;0.55;;;;;;;;;;5110457;28;20067;-87
2022/10/02 13:26:15;;;;;;;0.40;0.40;;;;;;;;;;5115250;28;20019;-85
2022/10/02 13:28:46;;;;;;;2.55;0.50;;;;;;;;;;5099485;28;20124;-85
2022/10/02 13:31:35;;;;;;;0.28;0.28;;;;;;;;;;5112292;28;20507;-84
2022/10/02 13:34:12;;;;;;;0.40;0.40;;;;;;;;;;5113998;28;20467;-88
2022/10/02 13:36:48;;;;;;;1.30;1.00;;;;;;;;;;5115208;28;20031;-86
2022/10/02 13:39:32;;;;;;;0.50;0.50;;;;;;;;;;5110637;28;20489;-88
2022/10/02 13:42:19;;;;;;;0.40;0.40;;;;;;;;;;5110390;28;20110;-87
2022/10/02 13:44:47;;;;;;;0.28;0.28;;;;;;;;;;5113337;28;20058;-88
2022/10/02 13:47:37;;;;;;;0.52;0.35;;;;;;;;;;5113912;28;20032;-86
2022/10/02 13:50:26;;;;;;;0.10;0.10;;;;;;;;;;5111263;28;20467;-84
2022/10/02 13:53:33;;;;;;;0.30;0.30;;;;;;;;;;5104925;28;20403;-83
2022/10/02 13:56:19;;;;;;;0.57;0.50;;;;;;;;;;5072855;28;20177;-85
2022/10/02 13:58:59;;;;;;;0.43;0.28;;;;;;;;;;5054263;28;20420;-86
2022/10/02 14:02:12;;;;;;;0.45;0.40;;;;;;;;;;5099143;28;20038;-88
2022/10/02 14:05:08;;;;;;;2.05;0.63;;;;;;;;;;5091120;28;20038;-85
2022/10/02 14:08:08;;;;;;;0.40;0.40;;;;;;;;;;5091344;28;20036;-84
2022/10/02 14:11:02;;;;;;;0.22;0.22;;;;;;;;;;5083790;28;20051;-83
2022/10/02 14:13:50;;;;;;;0.60;0.60;;;;;;;;;;5112602;28;20084;-86
2022/10/02 14:16:34;;;;;;;0.40;0.40;;;;;;;;;;5103468;28;20046;-84
2022/10/02 14:19:19;;;;;;;0.82;0.63;;;;;;;;;;5112041;28;20115;-85
2022/10/02 14:22:22;;;;;;;0.45;0.32;;;;;;;;;;5111846;28;20027;-86
2022/10/02 14:25:19;;;;;;;0.25;0.25;;;;;;;;;;5110630;28;20077;-86
2022/10/02 14:28:02;;;;;;;0.73;0.60;;;;;;;;;;5110015;28;20034;-87
2022/10/02 14:30:52;;;;;;;0.30;0.25;;;;;;;;;;5110764;28;20028;-85
2022/10/02 14:33:39;;;;;;;0.40;0.40;;;;;;;;;;5107724;28;20491;-87
2022/10/02 14:36:26;;;;;;;1.75;0.60;;;;;;;;;;5112144;28;20068;-85
2022/10/02 14:39:18;;;;;;;0.85;0.30;;;;;;;;;;5110677;28;20035;-85
2022/10/02 14:41:51;;;;;;;0.30;0.30;;;;;;;;;;5112407;28;20085;-84
2022/10/02 14:44:52;;;;;;;0.90;0.82;;;;;;;;;;5114813;28;20542;-87
2022/10/02 14:47:36;;;;;;;0.77;0.77;;;;;;;;;;5111516;28;20018;-83
2022/10/02 14:50:43;;;;;;;0.40;0.40;;;;;;;;;;5109938;28;20032;-85
2022/10/02 14:53:47;;;;;;;0.70;0.50;;;;;;;;;;5093451;28;20113;-82
2022/10/02 14:56:31;;;;;;;0.20;0.20;;;;;;;;;;5127946;27;20038;-85
2022/10/02 14:59:02;;;;;;;0.17;0.15;;;;;;;;;;5113199;28;20035;-84
2022/10/02 15:01:28;;;;;;;0.20;0.20;;;;;;;;;;5110910;28;20023;-83
2022/10/02 15:04:15;;;;;;;0.98;0.30;;;;;;;;;;5111906;28;20585;-84
2022/10/02 15:06:59;;;;;;;0.47;0.47;;;;;;;;;;5111435;28;20062;-86
2022/10/02 15:09:43;;;;;;;0.20;0.20;;;;;;;;;;5110513;28;20383;-84
2022/10/02 15:12:14;;;;;;;0.28;0.28;;;;;;;;;;5112640;28;20574;-81
2022/10/02 15:15:06;;;;;;;0.40;0.35;;;;;;;;;;5111736;27;20483;-84
2022/10/02 15:17:58;;;;;;;0.50;0.40;;;;;;;;;;5107515;28;20095;-86
2022/10/02 15:20:24;;;;;;;0.55;0.32;;;;;;;;;;5112305;28;20141;-85
2022/10/02 15:22:56;;;;;;;0.22;0.22;;;;;;;;;;5108997;28;20432;-82
2022/10/02 15:25:34;;;;;;;0.17;0.13;;;;;;;;;;5112833;28;20479;-85
2022/10/02 15:28:14;;;;;;;1.27;0.75;;;;;;;;;;5108849;28;20045;-84
2022/10/02 15:30:51;;;;;;;0.15;0.15;;;;;;;;;;5111801;28;20464;-83
2022/10/02 15:33:43;;;;;;;0.40;0.40;;;;;;;;;;5111341;28;20035;-87
2022/10/02 15:36:22;;;;;;;0.10;0.10;;;;;;;;;;5107961;28;20119;-81
2022/10/02 15:39:32;;;;;;;0.25;0.25;;;;;;;;;;5107257;28;20522;-83
2022/10/02 15:42:08;;;;;;;1.95;1.27;;;;;;;;;;5106951;28;20502;-86
2022/10/02 15:44:46;;;;;;;0.90;0.60;;;;;;;;;;5108742;28;20023;-83
2022/10/02 15:47:50;;;;;;;0.45;0.40;;;;;;;;;;5109628;28;20031;-84
2022/10/02 15:50:53;;;;;;;0.20;0.20;;;;;;;;;;5126221;27;20147;-86
2022/10/02 15:53:31;;;;;;;0.70;0.45;;;;;;;;;;5111242;28;20035;-87
2022/10/02 15:56:02;;;;;;;0.90;0.30;;;;;;;;;;5107166;28;20039;-86
2022/10/02 15:58:51;;;;;;;0.73;0.35;;;;;;;;;;5110918;28;20089;-85
2022/10/02 16:01:28;;;;;;;0.57;0.57;;;;;;;;;;5111160;27;20489;-85
2022/10/02 16:04:06;;;;;;;0.30;0.22;;;;;;;;;;5111237;28;20024;-82
2022/10/02 16:06:52;;;;;;;0.20;0.17;;;;;;;;;;5110398;28;20035;-86
2022/10/02 16:09:32;;;;;;;2.08;1.00;;;;;;;;;;5108795;28;20490;-85
2022/10/02 16:12:09;;;;;;;0.65;0.60;;;;;;;;;;5110201;28;20023;-87
2022/10/02 16:14:41;;;;;;;0.47;0.10;;;;;;;;;;5107160;28;20118;-85
2022/10/02 16:17:24;;;;;;;0.70;0.65;;;;;;;;;;5108063;27;20031;-86
2022/10/02 16:20:05;;;;;;;0.20;0.20;;;;;;;;;;5107307;28;20028;-85
2022/10/02 16:22:37;;;;;;;0.30;0.20;;;;;;;;;;5104859;28;20027;-90
2022/10/02 16:25:17;;;;;;;0.57;0.28;;;;;;;;;;5105045;28;20110;-86
2022/10/02 16:27:48;;;;;;;0.10;0.10;;;;;;;;;;5108637;28;20026;-86